Time;durP1;ratioP1;P1;durP2;ratioP2;P2;SDS_P1;SDS_P2;PMS_P1;PMS_P2;Temp;Humidity;BMP_temperature;BMP_pressure;BME280_temperature;BME280_humidity;BME280_pressure;Samples;Min_cycle;Max_cycle;Signal;HPM_P1;HPM_P2
2022/02/15 00:00:54;;;;;;;1.60;1.50;;;6.80;92.30;;;;;;4988155;23;20236;-78
2022/02/15 00:03:21;;;;;;;2.05;1.63;;;6.70;92.30;;;;;;4978618;28;20238;-80
2022/02/15 00:05:49;;;;;;;1.63;1.52;;;6.60;92.60;;;;;;4991182;28;20201;-79
2022/02/15 00:08:16;;;;;;;1.98;1.83;;;6.60;93.00;;;;;;4994719;28;20206;-77
2022/02/15 00:10:45;;;;;;;1.88;1.70;;;6.50;93.50;;;;;;4980142;28;20317;-77
2022/02/15 00:13:12;;;;;;;1.63;1.52;;;6.50;94.00;;;;;;4978523;28;20270;-78
2022/02/15 00:15:40;;;;;;;2.17;1.95;;;6.50;94.30;;;;;;4979045;28;20623;-78
2022/02/15 00:18:07;;;;;;;2.00;1.83;;;6.40;94.70;;;;;;4978671;28;20216;-79
2022/02/15 00:20:35;;;;;;;2.28;1.90;;;6.40;95.00;;;;;;4977831;28;20269;-76
2022/02/15 00:23:01;;;;;;;2.20;2.00;;;6.30;95.50;;;;;;4978142;28;20221;-79
2022/02/15 00:25:28;;;;;;;2.30;1.77;;;6.30;95.70;;;;;;4977385;28;20305;-78
2022/02/15 00:27:55;;;;;;;1.83;1.73;;;6.30;95.80;;;;;;4978338;28;20296;-78
2022/02/15 00:30:22;;;;;;;2.58;1.85;;;6.30;96.00;;;;;;4988648;28;20634;-78
2022/02/15 00:32:51;;;;;;;2.60;1.75;;;6.30;96.00;;;;;;4983556;28;20222;-78
2022/02/15 00:35:17;;;;;;;1.45;1.35;;;6.30;95.80;;;;;;4993897;28;20237;-77
2022/02/15 00:37:45;;;;;;;1.75;1.58;;;6.30;96.10;;;;;;4996223;28;20248;-79
2022/02/15 00:40:13;;;;;;;1.60;1.50;;;6.20;96.30;;;;;;4995341;28;20255;-78
2022/02/15 00:42:41;;;;;;;1.60;1.40;;;6.20;96.50;;;;;;4980213;28;20241;-78
2022/02/15 00:45:09;;;;;;;1.90;1.60;;;6.30;96.80;;;;;;4981076;28;20218;-80
2022/02/15 00:47:36;;;;;;;1.92;1.50;;;6.40;96.00;;;;;;4990187;28;20288;-78
2022/02/15 00:50:05;;;;;;;1.65;1.55;;;6.40;95.80;;;;;;4998313;28;20282;-79
2022/02/15 00:52:32;;;;;;;3.70;1.80;;;6.30;95.70;;;;;;4997641;28;20197;-78
2022/02/15 00:54:59;;;;;;;1.45;1.33;;;6.40;95.60;;;;;;4996029;28;20222;-77
2022/02/15 00:57:26;;;;;;;1.45;1.35;;;6.40;95.40;;;;;;4990769;28;20246;-78
2022/02/15 00:59:53;;;;;;;2.00;1.40;;;6.40;95.00;;;;;;4992832;28;20306;-79
2022/02/15 01:02:20;;;;;;;2.30;1.35;;;6.30;94.90;;;;;;4986486;28;20229;-79
2022/02/15 01:04:46;;;;;;;1.23;1.10;;;6.30;94.60;;;;;;4979630;28;20277;-78
2022/02/15 01:07:15;;;;;;;2.35;1.63;;;6.30;94.70;;;;;;4978281;28;20277;-78
2022/02/15 01:09:42;;;;;;;1.80;1.70;;;6.20;95.00;;;;;;4978962;28;20241;-79
2022/02/15 01:12:10;;;;;;;2.35;1.33;;;6.20;94.90;;;;;;4984349;28;20279;-79
2022/02/15 01:14:37;;;;;;;2.17;1.60;;;6.30;95.30;;;;;;4992251;28;20229;-78
2022/02/15 01:17:05;;;;;;;1.50;1.40;;;6.30;95.20;;;;;;4991951;28;20754;-77
2022/02/15 01:19:31;;;;;;;2.67;1.50;;;6.30;94.90;;;;;;4993174;28;20257;-77
2022/02/15 01:21:58;;;;;;;1.38;1.27;;;6.30;94.60;;;;;;4981150;28;20297;-79
2022/02/15 01:24:27;;;;;;;1.63;1.50;;;6.40;94.60;;;;;;4975872;28;20266;-82
2022/02/15 01:26:54;;;;;;;1.88;1.73;;;6.40;94.80;;;;;;4975848;28;20229;-78
2022/02/15 01:29:20;;;;;;;2.95;1.60;;;6.40;94.80;;;;;;4976638;28;20234;-77
2022/02/15 01:31:47;;;;;;;1.58;1.40;;;6.50;94.60;;;;;;4978583;28;20222;-76
2022/02/15 01:34:14;;;;;;;1.65;1.55;;;6.60;94.40;;;;;;4979557;28;20221;-77
2022/02/15 01:36:41;;;;;;;2.72;1.30;;;6.60;94.00;;;;;;4981389;28;20342;-77
2022/02/15 01:39:09;;;;;;;1.40;1.30;;;6.60;93.70;;;;;;4978367;28;20213;-77
2022/02/15 01:41:38;;;;;;;2.30;1.40;;;6.70;92.80;;;;;;4977098;28;20234;-77
2022/02/15 01:44:05;;;;;;;1.40;1.30;;;6.70;92.50;;;;;;4979260;28;20209;-77
2022/02/15 01:46:32;;;;;;;1.10;1.00;;;6.70;92.20;;;;;;4987861;28;20584;-77
2022/02/15 01:48:59;;;;;;;1.20;1.10;;;6.80;92.00;;;;;;4979072;28;20220;-77
2022/02/15 01:51:26;;;;;;;1.40;1.30;;;6.80;90.90;;;;;;4978485;28;20226;-78
2022/02/15 01:53:54;;;;;;;1.23;1.13;;;6.80;90.50;;;;;;4978259;28;20700;-77
2022/02/15 01:56:21;;;;;;;1.70;1.13;;;6.90;90.20;;;;;;4978863;28;20317;-77
2022/02/15 01:58:49;;;;;;;1.33;1.23;;;6.90;89.10;;;;;;4978848;28;20217;-77
2022/02/15 02:01:16;;;;;;;1.83;1.25;;;6.90;88.00;;;;;;4977596;28;20238;-77
2022/02/15 02:03:43;;;;;;;1.50;1.30;;;7.00;87.80;;;;;;4978307;28;20274;-77
2022/02/15 02:06:09;;;;;;;2.45;1.65;;;7.00;87.20;;;;;;4978410;28;20247;-77
2022/02/15 02:08:36;;;;;;;1.37;1.27;;;7.10;87.40;;;;;;4977710;28;20217;-77
2022/02/15 02:11:04;;;;;;;1.90;1.30;;;7.10;87.00;;;;;;4977034;28;20673;-79
2022/02/15 02:13:31;;;;;;;1.20;1.10;;;7.10;86.20;;;;;;4977285;28;20238;-78
2022/02/15 02:15:59;;;;;;;1.45;1.35;;;7.20;85.90;;;;;;4978664;28;20210;-80
2022/02/15 02:18:26;;;;;;;1.80;1.40;;;7.20;85.40;;;;;;4977443;28;20522;-77
2022/02/15 02:20:53;;;;;;;2.15;1.25;;;7.20;84.90;;;;;;4978040;28;20242;-78
2022/02/15 02:23:22;;;;;;;1.60;1.25;;;7.20;84.50;;;;;;4984387;28;20300;-77
2022/02/15 02:25:50;;;;;;;1.45;1.35;;;7.30;84.20;;;;;;4984314;28;20209;-78
2022/02/15 02:28:18;;;;;;;1.63;1.42;;;7.30;83.40;;;;;;4978137;28;20215;-77
2022/02/15 02:30:45;;;;;;;2.63;1.40;;;7.30;83.40;;;;;;4976702;28;20319;-80
2022/02/15 02:33:12;;;;;;;1.83;1.70;;;7.30;83.40;;;;;;4976574;28;20300;-79
2022/02/15 02:35:39;;;;;;;1.48;1.38;;;7.30;83.40;;;;;;4977050;28;20233;-79
2022/02/15 02:38:05;;;;;;;2.55;1.33;;;7.30;83.40;;;;;;4978919;28;20248;-78
2022/02/15 02:40:34;;;;;;;1.73;1.48;;;7.30;83.20;;;;;;4980082;28;20258;-79
2022/02/15 02:43:01;;;;;;;1.33;1.23;;;7.30;82.40;;;;;;4985287;28;20214;-78
2022/02/15 02:45:28;;;;;;;2.00;1.65;;;7.30;83.70;;;;;;4980056;28;20281;-78
2022/02/15 02:47:56;;;;;;;2.08;1.30;;;7.30;82.50;;;;;;4980816;28;20289;-79
2022/02/15 02:50:26;;;;;;;2.72;1.80;;;7.30;82.50;;;;;;4980886;28;20309;-78
2022/02/15 02:52:55;;;;;;;2.90;1.85;;;7.20;82.10;;;;;;4979602;28;20632;-79
2022/02/15 02:55:22;;;;;;;4.20;1.60;;;7.20;82.50;;;;;;4982435;28;20259;-79
2022/02/15 02:57:50;;;;;;;3.63;1.75;;;7.20;82.40;;;;;;4985100;28;20336;-79
2022/02/15 03:00:18;;;;;;;2.30;1.55;;;7.20;81.60;;;;;;4987807;28;20250;-78
2022/02/15 03:02:45;;;;;;;1.38;1.25;;;7.30;81.20;;;;;;4985523;28;20259;-78
2022/02/15 03:05:12;;;;;;;1.30;1.20;;;7.30;80.70;;;;;;4987259;28;20304;-78
2022/02/15 03:07:39;;;;;;;7.63;1.70;;;7.30;80.40;;;;;;4983639;28;20246;-79
2022/02/15 03:10:06;;;;;;;1.80;1.48;;;7.40;80.20;;;;;;4981019;28;20683;-77
2022/02/15 03:12:33;;;;;;;2.47;1.40;;;7.40;79.90;;;;;;4978454;28;20308;-77
2022/02/15 03:15:01;;;;;;;2.63;1.58;;;7.40;79.50;;;;;;4981977;28;20254;-77
2022/02/15 03:17:28;;;;;;;1.88;1.67;;;7.40;79.50;;;;;;4987538;28;20255;-77
2022/02/15 03:19:56;;;;;;;1.98;1.50;;;7.40;79.80;;;;;;4987693;28;20233;-78
2022/02/15 03:22:25;;;;;;;2.58;1.40;;;7.30;79.60;;;;;;4983889;28;20211;-78
2022/02/15 03:24:52;;;;;;;2.90;1.65;;;7.20;80.00;;;;;;4983966;28;20495;-78
2022/02/15 03:27:19;;;;;;;3.83;1.50;;;7.20;81.20;;;;;;4981617;28;20266;-79
2022/02/15 03:29:46;;;;;;;2.15;1.15;;;7.10;82.00;;;;;;4981448;28;20662;-79
2022/02/15 03:32:14;;;;;;;2.97;1.83;;;7.20;82.20;;;;;;4985920;28;20221;-77
2022/02/15 03:34:41;;;;;;;1.10;1.00;;;7.20;81.20;;;;;;4991860;28;20234;-79
2022/02/15 03:37:08;;;;;;;3.38;1.15;;;7.20;81.30;;;;;;4992967;28;20221;-77
2022/02/15 03:39:36;;;;;;;2.85;1.60;;;7.20;81.10;;;;;;4995916;28;20219;-78
2022/02/15 03:44:48;;;;;;;3.45;1.50;;;7.20;81.40;;;;;;4982463;28;20189;-77
2022/02/15 03:47:17;;;;;;;2.30;1.42;;;7.30;80.60;;;;;;4978707;28;20210;-78
2022/02/15 03:49:44;;;;;;;2.97;1.45;;;7.20;80.70;;;;;;4978602;28;20302;-77
2022/02/15 03:52:11;;;;;;;1.92;1.10;;;7.20;81.80;;;;;;4978348;28;20257;-77
2022/02/15 03:54:38;;;;;;;2.25;1.40;;;7.10;83.10;;;;;;4977701;28;20745;-77
2022/02/15 03:57:05;;;;;;;3.30;1.55;;;7.10;84.00;;;;;;4979441;28;20305;-76
2022/02/15 03:59:32;;;;;;;1.50;1.40;;;7.00;85.20;;;;;;4984292;28;20274;-78
2022/02/15 04:01:59;;;;;;;2.67;1.58;;;7.00;86.80;;;;;;4988487;28;20210;-78
2022/02/15 04:04:27;;;;;;;1.75;1.35;;;7.00;87.20;;;;;;4986431;28;20224;-76
2022/02/15 04:06:55;;;;;;;4.53;1.80;;;6.90;87.60;;;;;;4981085;28;20234;-78
2022/02/15 04:09:21;;;;;;;2.90;1.67;;;6.90;88.80;;;;;;4986045;28;20229;-79
2022/02/15 04:11:48;;;;;;;2.20;1.65;;;6.90;90.10;;;;;;4984886;28;20217;-77
2022/02/15 04:14:15;;;;;;;2.05;1.77;;;6.90;89.40;;;;;;4977068;28;20337;-77
2022/02/15 04:16:42;;;;;;;3.72;1.80;;;6.90;89.30;;;;;;4977201;28;20211;-77
2022/02/15 04:19:09;;;;;;;1.90;1.80;;;6.90;89.20;;;;;;4976601;28;20210;-77
2022/02/15 04:21:37;;;;;;;2.53;1.67;;;6.90;89.60;;;;;;4977704;28;20698;-77
2022/02/15 04:24:05;;;;;;;2.90;1.88;;;7.00;89.30;;;;;;4977850;28;20273;-79
2022/02/15 04:26:32;;;;;;;3.90;2.15;;;7.00;89.00;;;;;;4978966;28;20284;-77
2022/02/15 04:28:59;;;;;;;3.47;1.67;;;7.00;88.70;;;;;;4981979;28;20207;-77
2022/02/15 04:31:26;;;;;;;2.55;1.70;;;7.00;87.70;;;;;;4985427;28;20210;-77
2022/02/15 04:33:52;;;;;;;3.67;1.75;;;7.00;88.40;;;;;;4987049;28;20273;-77
2022/02/15 04:36:19;;;;;;;1.83;1.50;;;7.00;88.80;;;;;;4990832;28;20242;-76
2022/02/15 04:38:48;;;;;;;2.38;1.50;;;7.00;89.50;;;;;;4988564;28;20211;-77
2022/02/15 04:41:15;;;;;;;2.35;1.83;;;7.00;89.90;;;;;;4993773;28;20248;-78
2022/02/15 04:43:42;;;;;;;1.80;1.50;;;7.00;90.00;;;;;;4995341;28;20718;-78
2022/02/15 04:46:08;;;;;;;2.25;1.20;;;7.00;90.50;;;;;;4995711;28;20261;-77
2022/02/15 04:48:35;;;;;;;2.97;1.45;;;7.00;90.60;;;;;;4996012;28;20222;-76
2022/02/15 04:51:02;;;;;;;1.80;1.65;;;6.90;90.80;;;;;;4992742;28;20248;-77
2022/02/15 04:53:29;;;;;;;3.67;1.48;;;7.00;91.00;;;;;;4979575;28;20207;-77
2022/02/15 04:55:59;;;;;;;2.95;1.42;;;7.00;91.10;;;;;;4978313;28;20226;-77
2022/02/15 04:58:26;;;;;;;1.70;1.60;;;7.00;90.90;;;;;;4977011;28;20626;-77
2022/02/15 05:00:53;;;;;;;1.88;1.50;;;7.00;90.80;;;;;;4975849;28;20249;-77
2022/02/15 05:03:20;;;;;;;2.55;1.75;;;7.00;90.80;;;;;;4975455;28;20265;-76
2022/02/15 05:05:47;;;;;;;4.93;1.88;;;7.10;90.60;;;;;;4982653;28;20214;-76
2022/02/15 05:08:14;;;;;;;5.35;1.98;;;7.10;90.40;;;;;;4981937;28;20214;-79
2022/02/15 05:21:04;;;;;;;3.50;2.35;;;7.10;88.90;;;;;;5052694;23;20245;-77
2022/02/15 05:23:32;;;;;;;3.15;2.25;;;7.10;89.10;;;;;;5000191;28;20217;-77
2022/02/15 05:26:00;;;;;;;2.60;2.05;;;7.00;90.90;;;;;;5000672;28;20627;-77
2022/02/15 05:28:31;;;;;;;3.65;2.83;;;7.00;92.40;;;;;;5004470;28;20229;-79
2022/02/15 05:30:59;;;;;;;2.63;2.42;;;6.80;94.10;;;;;;5010209;28;20325;-79
2022/02/15 05:33:26;;;;;;;3.17;2.88;;;6.80;95.80;;;;;;4997935;23;20233;-76
2022/02/15 05:35:53;;;;;;;3.47;3.00;;;6.80;96.50;;;;;;4940446;29;20231;-76
2022/02/15 05:38:21;;;;;;;5.40;2.88;;;6.70;97.60;;;;;;4940382;29;20212;-76
2022/02/15 05:40:48;;;;;;;4.95;3.40;;;6.70;98.50;;;;;;4941098;29;20721;-76
2022/02/15 05:43:14;;;;;;;3.28;2.97;;;6.60;99.20;;;;;;4943749;29;20274;-76
2022/02/15 05:45:41;;;;;;;3.75;3.45;;;6.60;99.90;;;;;;4944776;29;20287;-77
2022/02/15 05:48:08;;;;;;;3.75;2.67;;;6.50;99.90;;;;;;4941153;29;20302;-77
2022/02/15 05:50:50;;;;;;;5.63;3.20;;;6.50;99.90;;;;;;4940769;29;20239;-77
2022/02/15 05:53:17;;;;;;;5.63;3.85;;;6.50;99.90;;;;;;4940651;29;20703;-75
2022/02/15 05:55:48;;;;;;;5.78;4.00;;;6.60;99.90;;;;;;4941650;29;20601;-75
2022/02/15 05:58:15;;;;;;;6.05;3.90;;;6.50;99.90;;;;;;4941415;29;20240;-76
2022/02/15 06:00:42;;;;;;;5.07;3.42;;;6.50;99.90;;;;;;4941919;29;20212;-75
2022/02/15 06:05:49;;;;;;;6.38;3.60;;;6.50;99.90;;;;;;4941728;29;20222;-77
2022/02/15 06:08:16;;;;;;;5.47;4.65;;;6.50;99.90;;;;;;4941651;29;20211;-76
2022/02/15 06:10:46;;;;;;;5.25;3.92;;;6.50;99.90;;;;;;4940634;29;20239;-77
2022/02/15 06:13:13;;;;;;;6.10;4.03;;;6.50;99.90;;;;;;4940279;29;20282;-77
2022/02/15 06:15:40;;;;;;;7.32;4.22;;;6.50;99.90;;;;;;4941403;29;20276;-76
2022/02/15 06:18:07;;;;;;;5.05;3.92;;;6.50;99.90;;;;;;4941911;29;20270;-76
2022/02/15 06:20:34;;;;;;;5.35;3.60;;;6.50;99.90;;;;;;4942617;29;20221;-75
2022/02/15 06:23:01;;;;;;;5.97;3.70;;;6.40;99.90;;;;;;4944709;29;20235;-76
2022/02/15 06:25:28;;;;;;;4.45;3.90;;;6.50;99.90;;;;;;4950966;29;20207;-77
2022/02/15 06:27:57;;;;;;;6.90;4.10;;;6.40;99.90;;;;;;4943943;29;20242;-76
2022/02/15 06:30:24;;;;;;;4.35;3.95;;;6.40;99.90;;;;;;4949036;29;20231;-74
2022/02/15 06:32:51;;;;;;;4.65;3.90;;;6.40;99.90;;;;;;4945991;29;20251;-77
2022/02/15 06:35:18;;;;;;;4.80;4.05;;;6.40;99.90;;;;;;4943962;29;20347;-76
2022/02/15 06:37:47;;;;;;;4.53;3.58;;;6.40;99.90;;;;;;4947417;29;20211;-76
2022/02/15 06:40:15;;;;;;;5.30;4.00;;;6.40;99.90;;;;;;4939171;29;20219;-80
2022/02/15 06:42:46;;;;;;;7.53;4.20;;;6.40;99.90;;;;;;4940450;29;20270;-77
2022/02/15 06:45:15;;;;;;;3.80;3.50;;;6.50;99.90;;;;;;4941136;29;20199;-76
2022/02/15 06:47:42;;;;;;;5.70;4.18;;;6.50;99.90;;;;;;4943381;29;20215;-76
2022/02/15 06:50:10;;;;;;;4.93;3.58;;;6.50;99.90;;;;;;4956124;28;20207;-77
2022/02/15 06:52:37;;;;;;;5.70;3.88;;;6.50;99.90;;;;;;4960117;28;20216;-75
2022/02/15 06:55:04;;;;;;;5.07;3.90;;;6.60;99.90;;;;;;4960319;28;20224;-77
2022/02/15 06:57:31;;;;;;;8.48;4.22;;;6.60;99.90;;;;;;4952325;29;20271;-77
2022/02/15 06:59:58;;;;;;;4.55;3.78;;;6.60;99.90;;;;;;4943606;29;20245;-79
2022/02/15 07:02:27;;;;;;;6.40;4.15;;;6.60;99.90;;;;;;4947965;29;20236;-76
2022/02/15 07:04:54;;;;;;;4.28;3.65;;;6.70;99.90;;;;;;4948656;29;20288;-77
2022/02/15 07:07:20;;;;;;;4.70;4.15;;;6.70;99.90;;;;;;4951865;29;20711;-78
2022/02/15 07:09:47;;;;;;;4.00;3.60;;;6.70;99.90;;;;;;4953625;29;20275;-76
2022/02/15 07:12:14;;;;;;;4.85;4.03;;;6.70;99.90;;;;;;4945252;29;20216;-77
2022/02/15 07:14:41;;;;;;;4.80;3.97;;;6.70;99.90;;;;;;4940946;29;20208;-77
2022/02/15 07:17:08;;;;;;;6.53;4.10;;;6.80;99.90;;;;;;4940455;29;20211;-76
2022/02/15 07:19:37;;;;;;;5.65;4.22;;;6.80;99.90;;;;;;4941347;29;20563;-77
2022/02/15 07:22:05;;;;;;;4.50;3.88;;;6.80;99.90;;;;;;4942437;29;20259;-77
2022/02/15 07:24:33;;;;;;;6.03;4.30;;;6.90;99.90;;;;;;4943159;29;20236;-77
2022/02/15 07:27:00;;;;;;;4.57;4.18;;;6.90;99.40;;;;;;4944486;29;20282;-79
2022/02/15 07:29:27;;;;;;;4.75;3.92;;;6.90;99.10;;;;;;4951875;29;20230;-77
2022/02/15 07:31:54;;;;;;;5.45;4.03;;;6.90;98.60;;;;;;4944242;29;20207;-76
2022/02/15 07:34:21;;;;;;;6.50;4.40;;;6.90;98.10;;;;;;4939789;29;20236;-74
2022/02/15 07:36:51;;;;;;;5.60;4.20;;;6.90;97.80;;;;;;4937271;29;20624;-77
2022/02/15 07:39:18;;;;;;;5.72;3.60;;;7.00;98.00;;;;;;4937672;29;20215;-75
2022/02/15 07:41:46;;;;;;;4.18;3.65;;;7.10;97.80;;;;;;4938757;29;20664;-75
2022/02/15 07:44:13;;;;;;;8.02;4.80;;;7.10;97.10;;;;;;4940042;29;20232;-75
2022/02/15 07:46:42;;;;;;;7.07;4.35;;;7.10;96.70;;;;;;4939985;29;20239;-75
2022/02/15 07:49:09;;;;;;;5.25;4.05;;;7.20;96.00;;;;;;4940065;29;20609;-76
2022/02/15 07:51:36;;;;;;;8.85;4.15;;;7.20;95.90;;;;;;4944946;29;20211;-75
2022/02/15 07:54:04;;;;;;;5.80;4.85;;;7.30;94.80;;;;;;4941575;29;20232;-77
2022/02/15 07:56:32;;;;;;;4.78;3.97;;;7.20;94.20;;;;;;4949462;29;20236;-76
2022/02/15 07:58:58;;;;;;;5.88;4.68;;;7.30;94.10;;;;;;4951981;29;20234;-78
2022/02/15 08:01:25;;;;;;;6.40;4.00;;;7.30;93.60;;;;;;4951017;29;20246;-76
2022/02/15 08:03:53;;;;;;;5.68;4.68;;;7.40;93.40;;;;;;4950910;29;20236;-77
2022/02/15 08:06:20;;;;;;;4.97;4.05;;;7.50;92.70;;;;;;4953682;29;20216;-76
2022/02/15 08:08:47;;;;;;;5.43;4.15;;;7.50;92.60;;;;;;4950989;29;20217;-77
2022/02/15 08:11:15;;;;;;;6.25;4.85;;;7.50;91.80;;;;;;4946149;29;20619;-77
2022/02/15 08:13:42;;;;;;;8.32;4.47;;;7.60;91.60;;;;;;4939976;29;20268;-77
2022/02/15 08:16:09;;;;;;;10.13;4.95;;;7.60;91.30;;;;;;4938646;29;20228;-77
2022/02/15 08:18:40;;;;;;;5.03;4.53;;;7.70;90.80;;;;;;4938401;29;20219;-77
2022/02/15 08:21:08;;;;;;;5.97;4.75;;;7.80;90.00;;;;;;4937705;29;20744;-76
2022/02/15 08:23:35;;;;;;;6.75;4.72;;;8.00;89.00;;;;;;4938046;29;20278;-75
2022/02/15 08:26:02;;;;;;;4.88;4.38;;;8.00;87.30;;;;;;4936982;29;20206;-75
2022/02/15 08:28:31;;;;;;;5.28;4.47;;;8.00;86.00;;;;;;4936492;29;20239;-74
2022/02/15 08:30:58;;;;;;;6.47;5.03;;;8.00;86.00;;;;;;4936679;29;20680;-78
2022/02/15 08:33:27;;;;;;;7.00;5.07;;;8.10;86.10;;;;;;4936931;29;20249;-75
2022/02/15 08:35:54;;;;;;;6.05;4.70;;;8.20;84.50;;;;;;4936590;29;20741;-77
2022/02/15 08:38:22;;;;;;;5.57;4.53;;;8.20;83.50;;;;;;4936614;29;20225;-74
2022/02/15 08:40:48;;;;;;;8.10;4.45;;;8.20;83.50;;;;;;4936000;29;20310;-77
2022/02/15 08:43:16;;;;;;;4.97;4.57;;;8.20;83.20;;;;;;4936342;29;20275;-75
2022/02/15 08:45:44;;;;;;;5.03;4.40;;;8.20;82.90;;;;;;4937317;29;20206;-76
2022/02/15 08:48:11;;;;;;;7.93;4.97;;;8.30;82.40;;;;;;4937756;29;20229;-76
2022/02/15 08:50:38;;;;;;;6.95;4.65;;;8.30;81.80;;;;;;4938329;29;20623;-76
2022/02/15 08:53:05;;;;;;;5.93;5.05;;;8.40;80.60;;;;;;4938410;29;20244;-77
2022/02/15 08:55:32;;;;;;;4.88;4.40;;;8.60;80.30;;;;;;4937626;29;20255;-75
2022/02/15 08:57:58;;;;;;;6.35;4.88;;;8.60;78.50;;;;;;4938523;29;20213;-76
2022/02/15 09:00:26;;;;;;;5.55;4.38;;;8.70;77.90;;;;;;4939080;29;20213;-75
2022/02/15 09:02:54;;;;;;;8.98;4.95;;;8.70;76.70;;;;;;4937660;29;20230;-77
2022/02/15 09:05:21;;;;;;;8.35;4.82;;;8.70;76.10;;;;;;4936825;29;20220;-76
2022/02/15 09:07:49;;;;;;;7.68;5.10;;;8.60;74.80;;;;;;4937153;29;20223;-75
2022/02/15 09:10:16;;;;;;;6.72;5.05;;;8.50;75.00;;;;;;4937365;29;20210;-77
2022/02/15 09:12:44;;;;;;;5.47;4.43;;;8.40;75.90;;;;;;4938227;29;20260;-76
2022/02/15 09:15:13;;;;;;;6.07;5.15;;;8.30;75.80;;;;;;4938266;29;20244;-76
2022/02/15 09:17:41;;;;;;;7.80;5.40;;;8.20;77.10;;;;;;4939434;29;20273;-76
2022/02/15 09:20:12;;;;;;;5.47;4.88;;;8.30;77.50;;;;;;4940929;29;20212;-75
2022/02/15 09:22:39;;;;;;;8.85;5.10;;;8.30;77.60;;;;;;4941573;29;20260;-75
2022/02/15 09:25:08;;;;;;;7.55;6.13;;;8.30;78.20;;;;;;4945635;29;20276;-78
2022/02/15 09:27:35;;;;;;;5.50;5.00;;;8.40;77.50;;;;;;4942900;29;20222;-75
2022/02/15 09:30:01;;;;;;;5.82;4.45;;;8.40;76.40;;;;;;4941279;29;20254;-77
2022/02/15 09:32:28;;;;;;;5.25;4.75;;;8.50;76.00;;;;;;4940722;29;20236;-76
2022/02/15 09:34:55;;;;;;;9.77;4.90;;;8.50;76.00;;;;;;4938089;29;20606;-76
2022/02/15 09:37:23;;;;;;;7.38;4.70;;;8.50;76.00;;;;;;4936024;29;20324;-77
2022/02/15 09:39:50;;;;;;;5.47;4.55;;;8.50;76.00;;;;;;4936337;29;20244;-77
2022/02/15 09:42:18;;;;;;;6.32;4.22;;;8.60;76.00;;;;;;4936622;29;20232;-77
2022/02/15 09:44:47;;;;;;;6.07;4.10;;;8.70;75.20;;;;;;4937300;29;20214;-77
2022/02/15 09:47:18;;;;;;;4.40;3.80;;;8.70;74.30;;;;;;4935968;29;20712;-76
2022/02/15 09:49:50;;;;;;;5.43;4.00;;;8.70;73.80;;;;;;4936191;29;20197;-76
2022/02/15 09:52:18;;;;;;;9.30;4.85;;;8.90;71.80;;;;;;4936350;29;20305;-76
2022/02/15 09:54:48;;;;;;;4.72;4.20;;;9.10;70.90;;;;;;4936356;29;20282;-76
2022/02/15 09:57:15;;;;;;;4.28;3.88;;;9.30;69.80;;;;;;4937081;29;20351;-75
2022/02/15 09:59:42;;;;;;;5.50;4.20;;;9.40;68.00;;;;;;4937669;29;20234;-77
2022/02/15 10:02:14;;;;;;;5.95;4.15;;;9.50;68.10;;;;;;4950285;29;20308;-77
2022/02/15 10:04:41;;;;;;;8.38;4.15;;;9.50;66.70;;;;;;4951820;29;20220;-76
2022/02/15 10:07:12;;;;;;;6.63;4.20;;;9.50;66.60;;;;;;4942407;29;20651;-79
2022/02/15 10:09:41;;;;;;;4.28;3.88;;;9.70;66.40;;;;;;4941759;29;20218;-77
2022/02/15 10:12:12;;;;;;;4.68;4.00;;;9.80;65.40;;;;;;4941061;29;20232;-75
2022/02/15 10:14:40;;;;;;;5.07;3.78;;;9.70;65.20;;;;;;4940524;29;20215;-77
2022/02/15 10:17:08;;;;;;;5.43;4.05;;;9.70;64.40;;;;;;4938717;29;20250;-77
2022/02/15 10:19:36;;;;;;;6.15;4.75;;;9.70;64.40;;;;;;4939083;29;20214;-77
2022/02/15 10:22:05;;;;;;;4.10;3.72;;;9.50;65.40;;;;;;4940033;29;20629;-76
2022/02/15 10:24:33;;;;;;;7.05;4.40;;;9.60;64.90;;;;;;4940551;29;20652;-75
2022/02/15 10:27:02;;;;;;;4.00;3.60;;;9.60;64.40;;;;;;4940224;29;20213;-78
2022/02/15 10:29:32;;;;;;;5.00;4.15;;;9.70;64.60;;;;;;4940303;29;20272;-75
2022/02/15 10:32:01;;;;;;;4.18;3.80;;;9.70;63.20;;;;;;4942077;29;20518;-78
2022/02/15 10:34:29;;;;;;;5.85;4.40;;;9.70;63.40;;;;;;4941365;29;20229;-75
2022/02/15 10:37:00;;;;;;;5.07;3.97;;;9.60;63.50;;;;;;4939808;29;20241;-75
2022/02/15 10:39:38;;;;;;;4.03;3.63;;;9.60;63.30;;;;;;4940056;29;20193;-77
2022/02/15 10:42:10;;;;;;;4.63;3.75;;;9.70;63.90;;;;;;4939199;29;20679;-77
2022/02/15 10:44:50;;;;;;;4.00;3.42;;;9.60;63.10;;;;;;4939277;29;20218;-76
2022/02/15 10:47:17;;;;;;;4.25;3.85;;;9.70;63.40;;;;;;4937737;29;20564;-75
2022/02/15 10:49:44;;;;;;;7.10;2.92;;;9.80;62.30;;;;;;4937823;29;20665;-76
2022/02/15 10:52:11;;;;;;;5.10;3.50;;;9.90;61.90;;;;;;4937218;29;20381;-75
2022/02/15 10:54:39;;;;;;;4.20;3.60;;;9.90;61.20;;;;;;4938577;29;20221;-79
2022/02/15 10:57:06;;;;;;;3.58;3.28;;;10.00;60.10;;;;;;4938873;29;20241;-75
2022/02/15 10:59:34;;;;;;;6.13;4.05;;;10.10;58.80;;;;;;4938977;29;20219;-76
2022/02/15 11:02:03;;;;;;;5.60;3.75;;;10.00;58.70;;;;;;4939728;29;20277;-76
2022/02/15 11:04:32;;;;;;;3.97;2.97;;;10.00;58.70;;;;;;4938914;29;20220;-76
2022/02/15 11:07:04;;;;;;;5.70;3.42;;;10.00;58.70;;;;;;4940805;29;20218;-77
2022/02/15 11:09:38;;;;;;;4.53;4.05;;;10.10;58.80;;;;;;4942288;29;20277;-76
2022/02/15 11:12:15;;;;;;;5.07;3.50;;;10.10;58.80;;;;;;4940536;29;20610;-77
2022/02/15 11:14:42;;;;;;;7.75;3.58;;;10.30;59.00;;;;;;4944559;29;20193;-76
2022/02/15 11:17:16;;;;;;;4.63;3.70;;;10.20;58.20;;;;;;4946580;29;20230;-76
2022/02/15 11:19:43;;;;;;;5.50;3.90;;;10.30;59.00;;;;;;4939899;28;20538;-76
2022/02/15 11:22:19;;;;;;;4.53;4.13;;;10.30;57.00;;;;;;4938087;29;20225;-76
2022/02/15 11:24:45;;;;;;;4.72;4.10;;;10.10;57.60;;;;;;4939423;29;20273;-77
2022/02/15 11:27:18;;;;;;;6.30;3.95;;;10.00;58.70;;;;;;4938560;29;20587;-78
2022/02/15 11:29:51;;;;;;;6.13;3.90;;;9.90;59.60;;;;;;4939566;29;20210;-75
2022/02/15 11:32:27;;;;;;;5.90;4.03;;;10.10;58.80;;;;;;4939818;29;20277;-75
2022/02/15 11:34:54;;;;;;;6.40;3.72;;;10.30;58.30;;;;;;4940653;29;20211;-76
2022/02/15 11:37:23;;;;;;;4.88;3.90;;;10.50;57.70;;;;;;4939659;29;20233;-75
2022/02/15 11:40:06;;;;;;;6.35;4.43;;;10.60;56.70;;;;;;4939831;29;20218;-77
2022/02/15 11:42:47;;;;;;;5.82;4.60;;;10.70;56.00;;;;;;4942449;29;20325;-74
2022/02/15 11:45:17;;;;;;;6.85;4.43;;;10.60;56.50;;;;;;4959420;29;20230;-75
2022/02/15 11:47:47;;;;;;;5.18;4.20;;;10.70;55.90;;;;;;4954398;29;20208;-78
2022/02/15 11:50:16;;;;;;;7.07;4.55;;;10.60;55.70;;;;;;4955759;29;20195;-75
2022/02/15 11:52:44;;;;;;;5.97;4.68;;;10.50;55.80;;;;;;4946864;29;20234;-75
2022/02/15 11:55:14;;;;;;;6.85;4.40;;;10.30;57.40;;;;;;4946784;29;20217;-76
2022/02/15 11:57:42;;;;;;;6.05;4.25;;;9.90;60.70;;;;;;4940215;29;20244;-79
2022/02/15 12:00:12;;;;;;;4.55;3.65;;;9.50;65.30;;;;;;4942608;29;20208;-77
2022/02/15 12:02:40;;;;;;;5.38;3.65;;;9.30;65.90;;;;;;4940111;29;20243;-74
2022/02/15 12:05:09;;;;;;;3.50;3.20;;;9.10;68.50;;;;;;4938395;29;20230;-77
2022/02/15 12:07:36;;;;;;;3.08;2.80;;;9.00;69.20;;;;;;4939082;29;20216;-75
2022/02/15 12:10:08;;;;;;;3.53;3.20;;;9.20;69.10;;;;;;4938946;29;20597;-76
2022/02/15 12:12:36;;;;;;;3.47;2.50;;;9.40;66.20;;;;;;4938198;29;20232;-75
2022/02/15 12:15:06;;;;;;;2.53;2.00;;;9.60;64.30;;;;;;4939381;29;20217;-76
2022/02/15 12:17:37;;;;;;;2.33;1.52;;;9.80;60.50;;;;;;4940440;29;20272;-76
2022/02/15 12:20:04;;;;;;;4.20;1.85;;;9.90;57.60;;;;;;4941609;29;20217;-76
2022/02/15 12:22:33;;;;;;;1.95;1.48;;;10.00;50.50;;;;;;4943042;29;20319;-76
2022/02/15 12:25:00;;;;;;;1.80;1.30;;;10.10;50.70;;;;;;4938839;29;20217;-76
2022/02/15 12:27:27;;;;;;;3.53;1.92;;;10.30;49.50;;;;;;4938749;29;20212;-77
2022/02/15 12:29:56;;;;;;;5.70;2.20;;;10.70;49.90;;;;;;4940144;29;20317;-76
2022/02/15 12:32:25;;;;;;;3.22;2.20;;;11.00;47.40;;;;;;4940103;29;20230;-74
2022/02/15 12:34:53;;;;;;;3.65;1.65;;;11.00;47.80;;;;;;4941378;29;20227;-77
2022/02/15 12:37:22;;;;;;;2.70;1.80;;;10.70;48.80;;;;;;4949098;29;20237;-75
2022/02/15 12:39:53;;;;;;;2.35;1.83;;;10.50;47.40;;;;;;4944854;29;20210;-76
2022/02/15 12:42:21;;;;;;;1.85;1.65;;;10.40;48.40;;;;;;4938597;29;20840;-75
2022/02/15 12:44:58;;;;;;;2.03;1.70;;;10.30;48.80;;;;;;4938705;29;20255;-75
2022/02/15 12:47:25;;;;;;;2.35;1.80;;;10.40;47.60;;;;;;4937277;29;20209;-75
2022/02/15 12:49:53;;;;;;;2.45;1.88;;;10.40;46.80;;;;;;4936833;29;20211;-79
2022/02/15 12:52:22;;;;;;;3.10;2.20;;;10.50;48.00;;;;;;4941545;29;20256;-75
2022/02/15 12:54:55;;;;;;;2.70;2.08;;;10.70;48.60;;;;;;4941534;29;20242;-75
2022/02/15 12:57:24;;;;;;;2.20;2.10;;;10.60;46.50;;;;;;4941186;29;20286;-75
2022/02/15 12:59:57;;;;;;;3.25;2.25;;;10.40;46.80;;;;;;4940809;29;20270;-77
2022/02/15 13:02:26;;;;;;;3.05;1.88;;;10.20;47.70;;;;;;4941087;29;20320;-75
2022/02/15 13:04:57;;;;;;;2.10;1.90;;;10.20;46.70;;;;;;4941501;29;20218;-75
2022/02/15 13:07:25;;;;;;;2.90;2.00;;;10.20;47.40;;;;;;4939384;29;20191;-75
2022/02/15 13:09:55;;;;;;;3.22;1.83;;;10.20;47.80;;;;;;4945084;29;20210;-76
2022/02/15 13:12:24;;;;;;;3.83;1.80;;;10.00;47.20;;;;;;4946094;29;20236;-76
2022/02/15 13:14:57;;;;;;;2.90;1.88;;;9.90;48.50;;;;;;4943864;29;20204;-75